Time;durP1;ratioP1;P1;durP2;ratioP2;P2;SDS_P1;SDS_P2;PMS_P1;PMS_P2;Temp;Humidity;BMP_temperature;BMP_pressure;BME280_temperature;BME280_humidity;BME280_pressure;Samples;Min_cycle;Max_cycle;Signal;HPM_P1;HPM_P2
2022/12/10 00:02:03;;;;;;;49.23;22.77;;;-1.50;99.90;;;;;;5021127;28;20503;-77
2022/12/10 00:04:29;;;;;;;49.40;22.83;;;-1.50;99.90;;;;;;5028249;28;20029;-77
2022/12/10 00:06:55;;;;;;;43.67;19.47;;;-1.50;99.90;;;;;;5022470;28;20072;-77
2022/12/10 00:09:22;;;;;;;45.87;21.50;;;-1.50;99.90;;;;;;5034591;28;20482;-77
2022/12/10 00:11:48;;;;;;;48.80;22.73;;;-1.50;99.90;;;;;;5025043;28;20491;-77
2022/12/10 00:14:15;;;;;;;39.67;18.37;;;-1.50;99.90;;;;;;4999412;28;20033;-76
2022/12/10 00:16:42;;;;;;;49.17;20.87;;;-1.60;99.90;;;;;;5027791;28;20045;-76
2022/12/10 00:19:08;;;;;;;39.23;17.97;;;-1.60;99.90;;;;;;5027830;28;20543;-78
2022/12/10 00:21:36;;;;;;;37.97;18.60;;;-1.60;99.90;;;;;;5008460;28;20397;-77
2022/12/10 00:24:04;;;;;;;47.23;21.60;;;-1.60;99.90;;;;;;5008581;28;20515;-77
2022/12/10 00:26:34;;;;;;;66.27;29.17;;;-1.60;99.90;;;;;;5021522;28;20041;-77
2022/12/10 00:29:02;;;;;;;61.47;27.70;;;-1.60;99.90;;;;;;5017094;28;20037;-76
2022/12/10 00:31:31;;;;;;;54.07;23.87;;;-1.60;99.90;;;;;;4988348;28;20037;-75
2022/12/10 00:34:00;;;;;;;48.67;22.80;;;-1.60;99.90;;;;;;4989282;28;20338;-75
2022/12/10 00:36:32;;;;;;;52.27;21.07;;;-1.60;99.90;;;;;;5002502;28;20037;-73
2022/12/10 00:38:59;;;;;;;51.97;23.33;;;-1.60;99.90;;;;;;5023152;28;20042;-75
2022/12/10 00:41:28;;;;;;;55.27;24.60;;;-1.60;99.90;;;;;;5019668;28;20049;-76
2022/12/10 00:43:54;;;;;;;48.73;22.57;;;-1.60;99.90;;;;;;5014999;28;20385;-75
2022/12/10 00:46:21;;;;;;;44.73;19.53;;;-1.60;99.90;;;;;;5019469;28;20434;-75
2022/12/10 00:48:47;;;;;;;45.40;21.13;;;-1.60;99.90;;;;;;5014248;28;20034;-75
2022/12/10 00:51:17;;;;;;;44.67;19.70;;;-1.60;99.90;;;;;;5021302;28;20038;-75
2022/12/10 00:53:44;;;;;;;45.53;20.57;;;-1.60;99.90;;;;;;5007295;28;20041;-76
2022/12/10 00:56:12;;;;;;;53.30;21.73;;;-1.60;99.90;;;;;;5022509;28;20041;-75
2022/12/10 00:58:40;;;;;;;44.40;20.93;;;-1.60;99.90;;;;;;5022154;28;20368;-75
2022/12/10 01:01:22;;;;;;;47.03;21.20;;;-1.60;99.90;;;;;;5004579;28;20480;-76
2022/12/10 01:03:50;;;;;;;51.13;21.00;;;-1.60;99.90;;;;;;5016341;28;20022;-76
2022/12/10 01:06:26;;;;;;;45.63;21.57;;;-1.60;99.90;;;;;;5022814;28;20499;-76
2022/12/10 01:08:56;;;;;;;47.77;22.23;;;-1.60;99.90;;;;;;5024470;28;20483;-77
2022/12/10 01:11:26;;;;;;;49.93;20.23;;;-1.70;99.90;;;;;;5025428;28;20038;-77
2022/12/10 01:13:52;;;;;;;51.30;22.17;;;-1.70;99.90;;;;;;5034348;28;20037;-77
2022/12/10 01:16:20;;;;;;;46.03;21.07;;;-1.70;99.90;;;;;;5025121;28;20060;-77
2022/12/10 01:18:47;;;;;;;45.30;21.03;;;-1.70;99.90;;;;;;5024449;28;20064;-76
2022/12/10 01:21:17;;;;;;;44.27;21.43;;;-1.70;99.90;;;;;;5042428;28;20045;-77
2022/12/10 01:23:46;;;;;;;49.93;21.43;;;-1.70;99.90;;;;;;5024130;28;20704;-77
2022/12/10 01:26:15;;;;;;;50.67;22.47;;;-1.70;99.90;;;;;;5024832;28;20041;-76
2022/12/10 01:28:43;;;;;;;52.93;22.27;;;-1.80;99.90;;;;;;5004667;28;20034;-77
2022/12/10 01:31:16;;;;;;;45.60;20.10;;;-1.80;99.90;;;;;;5008992;28;20038;-77
2022/12/10 01:33:43;;;;;;;45.10;21.47;;;-1.80;99.90;;;;;;4988616;28;20045;-76
2022/12/10 01:36:16;;;;;;;42.67;18.90;;;-1.80;99.90;;;;;;5024650;28;20522;-76
2022/12/10 01:38:43;;;;;;;47.67;20.57;;;-1.80;99.90;;;;;;5045722;28;20415;-77
2022/12/10 01:41:16;;;;;;;46.90;20.17;;;-1.80;99.90;;;;;;5019813;28;20029;-77
2022/12/10 01:43:59;;;;;;;;;;;-1.80;99.90;;;;;;5009725;28;20029;-74
2022/12/10 01:46:33;;;;;;;43.13;17.23;;;-1.90;99.90;;;;;;5038207;28;20409;-74
2022/12/10 01:49:03;;;;;;;47.28;22.90;;;-1.90;99.90;;;;;;5027807;28;20500;-74
2022/12/10 01:51:33;;;;;;;48.03;21.17;;;-1.90;99.90;;;;;;5041309;28;20352;-74
2022/12/10 01:54:01;;;;;;;45.23;20.03;;;-2.00;99.90;;;;;;5025327;28;20485;-75
2022/12/10 01:56:28;;;;;;;47.27;20.77;;;-2.00;99.90;;;;;;5022812;28;20053;-74
2022/12/10 01:58:57;;;;;;;46.43;20.47;;;-2.00;99.90;;;;;;5009935;28;20502;-74
2022/12/10 02:01:42;;;;;;;47.83;21.13;;;-2.00;99.90;;;;;;5025047;28;20064;-73
2022/12/10 02:04:37;;;;;;;47.47;21.13;;;-2.00;99.90;;;;;;5016584;28;20045;-74
2022/12/10 02:07:18;;;;;;;51.10;22.57;;;-2.00;99.90;;;;;;4986315;28;20045;-74
2022/12/10 02:09:52;;;;;;;55.80;23.37;;;-2.00;99.90;;;;;;5009487;28;20075;-74
2022/12/10 02:12:22;;;;;;;50.03;22.27;;;-2.00;99.90;;;;;;4997585;28;20040;-74
2022/12/10 02:14:52;;;;;;;52.70;22.83;;;-2.10;99.90;;;;;;5025395;28;20033;-74
2022/12/10 02:17:37;;;;;;;53.30;23.20;;;-2.00;99.90;;;;;;5025257;28;20514;-74
2022/12/10 02:20:46;;;;;;;53.57;22.70;;;-2.00;99.90;;;;;;5010715;28;20413;-74
2022/12/10 02:23:18;;;;;;;51.60;22.23;;;-2.00;99.90;;;;;;4999114;28;20058;-75
2022/12/10 02:26:29;;;;;;;45.53;20.88;;;-2.00;99.90;;;;;;5025849;28;20045;-75
2022/12/10 02:29:18;;;;;;;47.57;20.43;;;-2.10;99.90;;;;;;4977640;28;20045;-74
2022/12/10 02:32:07;;;;;;;41.77;19.57;;;-2.00;99.90;;;;;;4948743;28;20033;-75
2022/12/10 02:34:43;;;;;;;40.30;18.90;;;-2.10;99.90;;;;;;5013849;28;20386;-75
2022/12/10 02:37:33;;;;;;;50.47;22.53;;;-2.10;99.90;;;;;;5008644;28;20037;-75
2022/12/10 02:40:06;;;;;;;56.43;24.47;;;-2.10;99.90;;;;;;5023260;28;20440;-74
2022/12/10 02:42:43;;;;;;;55.23;24.23;;;-2.10;99.90;;;;;;5009964;28;20045;-75
2022/12/10 02:45:10;;;;;;;47.73;23.47;;;-2.10;99.90;;;;;;5006990;28;20408;-74
2022/12/10 02:47:39;;;;;;;50.63;21.60;;;-2.10;99.90;;;;;;5000493;28;20029;-75
2022/12/10 02:50:09;;;;;;;48.30;22.27;;;-2.10;99.90;;;;;;5044032;28;20041;-75
2022/12/10 02:52:35;;;;;;;48.80;22.10;;;-2.10;99.90;;;;;;5026992;28;20034;-74
2022/12/10 02:55:02;;;;;;;50.87;22.70;;;-2.20;99.90;;;;;;5049831;28;20472;-75
2022/12/10 02:57:50;;;;;;;47.43;20.90;;;-2.20;99.90;;;;;;5042631;28;20037;-74
2022/12/10 03:00:20;;;;;;;47.37;21.40;;;-2.20;99.90;;;;;;5028520;28;20041;-75
2022/12/10 03:03:14;;;;;;;48.23;21.03;;;-2.20;99.90;;;;;;5044919;28;20046;-75
2022/12/10 03:06:04;;;;;;;43.67;20.80;;;-2.20;99.90;;;;;;5028705;28;20048;-75
2022/12/10 03:08:51;;;;;;;44.03;20.47;;;-2.20;99.90;;;;;;5029167;28;20389;-75
2022/12/10 03:11:28;;;;;;;50.47;22.03;;;-2.20;99.90;;;;;;5027805;28;20044;-75
2022/12/10 03:14:29;;;;;;;50.13;21.60;;;-2.20;99.90;;;;;;5022297;28;20479;-75
2022/12/10 03:16:58;;;;;;;45.60;20.93;;;-2.20;99.90;;;;;;5018135;28;20503;-75
2022/12/10 03:19:39;;;;;;;49.33;21.60;;;-2.20;99.90;;;;;;5027387;28;20614;-75
2022/12/10 03:22:07;;;;;;;41.23;19.07;;;-2.20;99.90;;;;;;5027497;28;20052;-75
2022/12/10 03:24:35;;;;;;;44.07;20.50;;;-2.20;99.90;;;;;;5031461;28;20045;-75
2022/12/10 03:27:04;;;;;;;50.07;19.97;;;-2.30;99.90;;;;;;5025801;28;20037;-74
2022/12/10 03:29:39;;;;;;;63.83;25.90;;;-2.20;99.90;;;;;;5027255;28;20026;-76
2022/12/10 03:32:05;;;;;;;58.97;25.40;;;-1.90;99.90;;;;;;5041843;28;20589;-75
2022/12/10 03:34:33;;;;;;;71.20;28.50;;;-1.60;99.90;;;;;;5044968;28;20390;-76
2022/12/10 03:37:00;;;;;;;58.40;23.50;;;-1.40;99.90;;;;;;5022145;28;20033;-75
2022/12/10 03:39:27;;;;;;;65.23;28.77;;;-1.30;99.90;;;;;;5032830;28;20048;-75
2022/12/10 03:41:54;;;;;;;56.33;26.17;;;-1.30;99.90;;;;;;5023192;28;20502;-75
2022/12/10 03:44:32;;;;;;;59.33;24.70;;;-1.30;99.90;;;;;;4999355;28;20044;-75
2022/12/10 03:46:59;;;;;;;56.00;24.90;;;-1.30;99.90;;;;;;5030171;28;20022;-75
2022/12/10 03:49:25;;;;;;;60.27;25.63;;;-1.40;99.90;;;;;;5012504;28;20037;-75
2022/12/10 03:51:52;;;;;;;66.50;27.03;;;-1.50;99.90;;;;;;5024936;28;20048;-75
2022/12/10 03:54:19;;;;;;;54.50;23.10;;;-1.60;99.90;;;;;;5029430;28;20033;-75
2022/12/10 03:56:46;;;;;;;54.30;24.50;;;-1.80;99.90;;;;;;5024009;28;20045;-76
2022/12/10 03:59:12;;;;;;;55.03;24.43;;;-1.90;99.90;;;;;;5021319;28;20421;-75
2022/12/10 04:01:38;;;;;;;61.23;26.43;;;-2.00;99.90;;;;;;5043984;28;20042;-75
2022/12/10 04:04:05;;;;;;;56.20;24.63;;;-2.10;99.90;;;;;;5045417;28;20036;-75
2022/12/10 04:06:32;;;;;;;54.57;24.30;;;-2.10;99.90;;;;;;5022917;28;20048;-75
2022/12/10 04:08:58;;;;;;;56.00;24.70;;;-2.20;99.90;;;;;;5024516;28;20032;-76
2022/12/10 04:11:26;;;;;;;53.50;23.90;;;-2.20;99.90;;;;;;5023542;28;20041;-75
2022/12/10 04:16:38;;;;;;;55.47;22.70;;;-2.20;99.90;;;;;;5039190;28;20052;-74
2022/12/10 04:19:07;;;;;;;58.80;26.83;;;-2.20;99.90;;;;;;5028213;28;20060;-75
2022/12/10 04:27:19;;;;;;;60.57;25.73;;;-2.10;99.90;;;;;;5022988;28;20129;-75
2022/12/10 04:29:46;;;;;;;65.63;26.47;;;-2.00;99.90;;;;;;5024451;28;20026;-75
2022/12/10 04:32:13;;;;;;;69.37;29.03;;;-1.90;99.90;;;;;;5029850;28;20045;-75
2022/12/10 04:34:39;;;;;;;77.53;30.57;;;-1.90;99.90;;;;;;5025287;28;20034;-76
2022/12/10 04:37:06;;;;;;;79.60;33.30;;;-1.80;99.90;;;;;;5043385;28;20041;-75
2022/12/10 04:39:33;;;;;;;83.20;31.97;;;-1.70;99.90;;;;;;5026431;28;20036;-75
2022/12/10 04:42:00;;;;;;;92.07;33.13;;;-1.60;99.90;;;;;;5039917;28;20044;-74
2022/12/10 04:44:27;;;;;;;89.30;34.10;;;-1.60;99.90;;;;;;5025448;28;20396;-74
2022/12/10 04:46:53;;;;;;;80.90;31.80;;;-1.50;99.90;;;;;;5038947;28;20650;-75
2022/12/10 04:49:20;;;;;;;85.27;32.27;;;-1.40;99.90;;;;;;5041894;28;20036;-75
2022/12/10 04:51:46;;;;;;;86.73;36.10;;;-1.40;99.90;;;;;;5027066;28;20042;-74
2022/12/10 04:54:13;;;;;;;104.93;37.07;;;-1.30;99.90;;;;;;5010323;28;20044;-75
2022/12/10 04:56:40;;;;;;;93.87;36.63;;;-1.30;99.90;;;;;;5021654;28;20037;-73
2022/12/10 04:59:08;;;;;;;108.83;41.57;;;-1.30;99.90;;;;;;5029026;28;20037;-74
2022/12/10 05:01:35;;;;;;;94.00;36.53;;;-1.30;99.90;;;;;;5026263;28;20041;-75
2022/12/10 05:04:03;;;;;;;90.67;34.63;;;-1.30;99.90;;;;;;5027574;28;20518;-75
2022/12/10 05:06:30;;;;;;;82.87;33.13;;;-1.20;99.90;;;;;;5021494;28;20536;-75
2022/12/10 05:08:57;;;;;;;89.77;35.23;;;-1.20;99.90;;;;;;5043034;28;20037;-75
2022/12/10 05:11:25;;;;;;;78.97;30.77;;;-1.20;99.90;;;;;;5043514;28;20025;-75
2022/12/10 05:13:53;;;;;;;104.50;35.27;;;-1.10;99.90;;;;;;5026937;28;20052;-75
2022/12/10 05:16:21;;;;;;;92.00;34.53;;;-1.10;99.90;;;;;;5025043;28;20518;-75
2022/12/10 05:18:48;;;;;;;101.80;36.83;;;-1.10;99.90;;;;;;5006662;28;20049;-76
2022/12/10 05:21:18;;;;;;;120.10;41.40;;;-1.00;99.90;;;;;;5008199;28;20042;-74
2022/12/10 05:23:47;;;;;;;121.07;43.17;;;-1.00;99.90;;;;;;5027225;28;20048;-76
2022/12/10 05:26:16;;;;;;;107.73;40.60;;;-1.00;99.90;;;;;;5025276;28;20045;-75
2022/12/10 05:28:51;;;;;;;107.23;40.43;;;-1.00;99.90;;;;;;5026546;28;20467;-76
2022/12/10 05:31:29;;;;;;;113.33;41.87;;;-1.00;99.90;;;;;;5015975;28;20037;-76
2022/12/10 05:33:57;;;;;;;110.07;41.37;;;-1.00;99.90;;;;;;5035069;28;20384;-74
2022/12/10 05:36:29;;;;;;;118.00;42.37;;;-1.00;99.90;;;;;;4996217;28;20037;-74
2022/12/10 05:38:56;;;;;;;104.53;37.15;;;-1.00;99.90;;;;;;5018288;28;20042;-75
2022/12/10 05:41:33;;;;;;;104.30;36.47;;;-1.00;99.90;;;;;;5042791;28;20373;-76
2022/12/10 05:43:59;;;;;;;110.27;40.13;;;-0.90;99.90;;;;;;5008149;28;20070;-75
2022/12/10 05:46:29;;;;;;;127.70;44.83;;;-0.90;99.90;;;;;;5006781;28;20045;-75
2022/12/10 05:48:57;;;;;;;113.30;39.60;;;-0.90;99.90;;;;;;5021456;28;20048;-75
2022/12/10 05:51:26;;;;;;;124.10;45.10;;;-0.90;99.90;;;;;;5029380;28;20041;-75
2022/12/10 05:53:54;;;;;;;123.33;42.80;;;-0.90;99.90;;;;;;5024325;28;20029;-75
2022/12/10 05:56:23;;;;;;;117.83;43.87;;;-0.90;99.90;;;;;;5028736;28;20760;-75
2022/12/10 05:58:51;;;;;;;142.17;46.63;;;-0.90;99.90;;;;;;5039753;28;20041;-75
2022/12/10 06:01:20;;;;;;;123.03;43.53;;;-0.80;99.90;;;;;;5010117;28;20025;-75
2022/12/10 06:03:47;;;;;;;101.80;37.03;;;-0.80;99.90;;;;;;5024700;28;20033;-75
2022/12/10 06:06:13;;;;;;;130.60;40.70;;;-0.80;99.90;;;;;;5025366;28;20048;-74
2022/12/10 06:08:40;;;;;;;93.37;35.83;;;-0.80;99.90;;;;;;5039927;28;20063;-76
2022/12/10 06:11:10;;;;;;;116.20;41.23;;;-0.80;99.90;;;;;;4994520;28;20032;-76
2022/12/10 06:13:37;;;;;;;105.83;38.53;;;-0.80;99.90;;;;;;5002506;28;20056;-75
2022/12/10 06:16:09;;;;;;;119.53;39.53;;;-0.80;99.90;;;;;;5026558;28;20041;-74
2022/12/10 06:18:36;;;;;;;110.40;40.88;;;-0.90;99.90;;;;;;5020811;28;20072;-75
2022/12/10 06:21:08;;;;;;;121.47;41.70;;;-0.80;99.90;;;;;;5041253;28;20029;-75
2022/12/10 06:23:35;;;;;;;206.68;49.95;;;-0.90;99.90;;;;;;5026124;28;20677;-75
2022/12/10 06:26:13;;;;;;;134.20;44.83;;;-0.90;99.90;;;;;;5024223;28;20026;-75
2022/12/10 06:28:41;;;;;;;107.67;37.80;;;-0.90;99.90;;;;;;5021085;28;20040;-76
2022/12/10 06:31:07;;;;;;;117.97;42.60;;;-1.00;99.90;;;;;;5024851;28;20025;-76
2022/12/10 06:33:34;;;;;;;125.73;44.40;;;-1.00;99.90;;;;;;5022492;28;20034;-76
2022/12/10 06:36:07;;;;;;;104.00;38.93;;;-1.00;99.90;;;;;;5006560;28;20048;-75
2022/12/10 06:38:35;;;;;;;118.17;41.47;;;-1.00;99.90;;;;;;5036766;28;20041;-76
2022/12/10 06:41:05;;;;;;;120.33;39.97;;;-1.10;99.90;;;;;;5032608;28;20033;-76
2022/12/10 06:43:32;;;;;;;115.23;37.23;;;-1.10;99.90;;;;;;5026915;28;20049;-76
2022/12/10 06:45:58;;;;;;;125.70;42.17;;;-1.10;99.90;;;;;;5028851;28;20040;-76
2022/12/10 06:48:25;;;;;;;107.00;36.30;;;-1.00;99.90;;;;;;5018707;28;20041;-76
2022/12/10 06:50:51;;;;;;;129.13;41.40;;;-1.00;99.90;;;;;;5025533;28;20033;-75
2022/12/10 06:53:18;;;;;;;134.90;44.73;;;-1.00;99.90;;;;;;5048595;28;20048;-75
2022/12/10 06:55:44;;;;;;;117.03;40.77;;;-1.00;99.90;;;;;;5019318;28;20033;-75
2022/12/10 06:58:11;;;;;;;104.57;36.50;;;-1.00;99.90;;;;;;5000998;28;20050;-75
2022/12/10 07:00:37;;;;;;;124.97;40.83;;;-1.00;99.90;;;;;;5026993;28;20036;-75
2022/12/10 07:03:03;;;;;;;141.63;41.00;;;-1.10;99.90;;;;;;5038477;28;20042;-75
2022/12/10 07:05:29;;;;;;;188.23;44.50;;;-1.10;99.90;;;;;;5032289;28;20025;-76
2022/12/10 07:07:56;;;;;;;111.43;36.70;;;-1.10;99.90;;;;;;5016292;28;20041;-75
2022/12/10 07:10:22;;;;;;;125.30;39.00;;;-1.00;99.90;;;;;;5035574;28;20040;-75
2022/12/10 07:12:49;;;;;;;129.70;38.80;;;-1.00;99.90;;;;;;5005707;28;20053;-74
2022/12/10 07:15:15;;;;;;;151.57;43.73;;;-1.00;99.90;;;;;;5045718;28;20400;-75
2022/12/10 07:17:41;;;;;;;121.50;38.63;;;-1.00;99.90;;;;;;5017011;28;20072;-75
2022/12/10 07:20:08;;;;;;;111.83;35.13;;;-1.00;99.90;;;;;;5009386;28;20036;-75
2022/12/10 07:22:35;;;;;;;169.97;43.07;;;-1.00;99.90;;;;;;5022615;28;20049;-74
2022/12/10 07:25:03;;;;;;;115.90;35.63;;;-0.90;99.90;;;;;;5025108;28;20032;-75
2022/12/10 07:27:31;;;;;;;230.20;48.30;;;-1.00;99.90;;;;;;5018274;28;20045;-75
2022/12/10 07:29:57;;;;;;;128.67;42.07;;;-1.00;99.90;;;;;;5026947;28;20432;-75
2022/12/10 07:32:24;;;;;;;119.87;39.33;;;-1.00;99.90;;;;;;5024200;28;20483;-75
2022/12/10 07:34:50;;;;;;;124.63;39.20;;;-1.00;99.90;;;;;;5033434;28;20069;-75
2022/12/10 07:37:16;;;;;;;135.60;38.47;;;-1.00;99.90;;;;;;5025067;28;20096;-75
2022/12/10 07:39:43;;;;;;;131.27;38.03;;;-1.10;99.90;;;;;;5010527;28;20032;-75
2022/12/10 07:42:11;;;;;;;119.63;39.63;;;-1.10;99.90;;;;;;5047083;28;20052;-75
2022/12/10 07:44:38;;;;;;;119.37;39.97;;;-1.10;99.90;;;;;;5036818;28;20041;-75
2022/12/10 07:47:04;;;;;;;129.13;40.97;;;-1.10;99.90;;;;;;5020198;28;20041;-75
2022/12/10 07:49:31;;;;;;;113.90;36.40;;;-1.10;99.90;;;;;;5044612;28;20468;-75
2022/12/10 07:51:57;;;;;;;129.67;40.50;;;-1.10;99.90;;;;;;5011005;28;20041;-75
2022/12/10 07:54:24;;;;;;;143.20;42.83;;;-1.10;99.90;;;;;;5028360;28;20040;-75
2022/12/10 07:56:50;;;;;;;105.20;35.30;;;-1.10;99.90;;;;;;5022574;28;20515;-74
2022/12/10 07:59:17;;;;;;;98.13;33.73;;;-1.10;99.90;;;;;;5023444;28;20408;-75
2022/12/10 08:01:43;;;;;;;104.87;33.67;;;-1.00;99.90;;;;;;5037287;28;20041;-74
2022/12/10 08:04:09;;;;;;;110.83;36.87;;;-1.00;99.90;;;;;;5036545;28;20042;-75
2022/12/10 08:06:36;;;;;;;142.00;42.63;;;-1.00;99.90;;;;;;5024534;28;20045;-74
2022/12/10 08:09:02;;;;;;;119.83;37.73;;;-1.00;99.90;;;;;;5025211;28;20034;-75
2022/12/10 08:11:29;;;;;;;131.13;41.07;;;-0.90;99.90;;;;;;4992681;28;20044;-75
2022/12/10 08:13:56;;;;;;;131.23;41.20;;;-0.90;99.90;;;;;;5031883;28;20049;-74
2022/12/10 08:16:25;;;;;;;112.27;38.07;;;-0.90;99.90;;;;;;5025918;28;20481;-76
2022/12/10 08:18:52;;;;;;;123.80;39.87;;;-0.80;99.90;;;;;;5003022;28;20045;-76
2022/12/10 08:21:21;;;;;;;121.43;37.60;;;-0.80;99.90;;;;;;5032188;28;20037;-76
2022/12/10 08:23:48;;;;;;;130.50;40.03;;;-0.80;99.90;;;;;;5039676;28;20048;-75
2022/12/10 08:26:17;;;;;;;123.00;38.93;;;-0.70;99.90;;;;;;5029940;28;20403;-76
2022/12/10 08:28:45;;;;;;;107.50;34.00;;;-0.70;99.90;;;;;;5018533;28;20136;-75
2022/12/10 08:31:13;;;;;;;142.43;40.63;;;-0.60;99.90;;;;;;5045199;28;20029;-76
2022/12/10 08:33:40;;;;;;;117.87;37.53;;;-0.60;99.90;;;;;;5000036;28;20037;-75
2022/12/10 08:36:08;;;;;;;167.97;48.67;;;-0.60;99.90;;;;;;5007049;28;20041;-75
2022/12/10 08:38:35;;;;;;;130.93;38.10;;;-0.60;99.90;;;;;;5039025;28;20037;-75
2022/12/10 08:41:19;;;;;;;128.27;37.00;;;-0.60;99.90;;;;;;5026471;28;20025;-75
2022/12/10 08:43:47;;;;;;;121.17;34.53;;;-0.60;99.90;;;;;;5023085;28;20033;-75
2022/12/10 08:46:14;;;;;;;97.70;33.30;;;-0.50;99.90;;;;;;5025771;28;20039;-75
2022/12/10 08:48:41;;;;;;;193.07;43.17;;;-0.50;99.90;;;;;;5023009;28;20048;-76
2022/12/10 08:51:10;;;;;;;120.47;38.13;;;-0.50;99.90;;;;;;5014069;28;20527;-76
2022/12/10 08:53:36;;;;;;;114.27;36.90;;;-0.50;99.90;;;;;;5029955;28;20037;-76
2022/12/10 08:56:03;;;;;;;111.97;32.77;;;-0.50;99.90;;;;;;5024804;28;20034;-75
2022/12/10 08:58:32;;;;;;;96.83;31.67;;;-0.40;99.90;;;;;;5022608;28;20041;-76
2022/12/10 09:01:01;;;;;;;117.80;37.07;;;-0.50;99.90;;;;;;5026932;28;20040;-75
2022/12/10 09:03:27;;;;;;;118.47;33.53;;;-0.50;99.90;;;;;;5026773;28;20048;-76
2022/12/10 09:05:54;;;;;;;137.40;36.27;;;-0.50;99.90;;;;;;5023280;28;20480;-76
2022/12/10 09:08:20;;;;;;;107.90;34.30;;;-0.50;99.90;;;;;;5003581;28;20391;-76
2022/12/10 09:10:47;;;;;;;116.50;38.20;;;-0.50;99.90;;;;;;5027464;28;20480;-75
2022/12/10 09:13:13;;;;;;;116.13;35.17;;;-0.40;99.90;;;;;;5026561;28;20037;-76
2022/12/10 09:15:39;;;;;;;107.77;32.20;;;-0.40;99.90;;;;;;5035302;28;20033;-76
2022/12/10 09:18:06;;;;;;;99.73;31.80;;;-0.40;99.90;;;;;;5035972;28;20069;-76
2022/12/10 09:20:32;;;;;;;124.67;36.53;;;-0.40;99.90;;;;;;5006925;28;20396;-76
2022/12/10 09:22:58;;;;;;;96.10;32.00;;;-0.30;99.90;;;;;;5028333;28;20050;-75
2022/12/10 09:25:25;;;;;;;124.00;35.63;;;-0.40;99.90;;;;;;5014848;28;20036;-76
2022/12/10 09:27:51;;;;;;;113.87;34.93;;;-0.40;99.90;;;;;;5019590;28;20641;-77
2022/12/10 09:30:18;;;;;;;115.87;32.57;;;-0.30;99.90;;;;;;5009844;28;20037;-77
2022/12/10 09:32:44;;;;;;;129.97;33.97;;;-0.30;99.90;;;;;;5014364;28;20037;-76
2022/12/10 09:35:11;;;;;;;120.47;35.23;;;-0.30;99.90;;;;;;5028203;28;20037;-75
2022/12/10 09:37:37;;;;;;;102.80;33.23;;;-0.30;99.90;;;;;;5020520;28;20053;-77
2022/12/10 09:40:04;;;;;;;121.33;35.10;;;-0.30;99.90;;;;;;5023504;28;20040;-75
2022/12/10 09:42:36;;;;;;;115.27;37.60;;;-0.30;99.90;;;;;;5026391;28;20033;-76
2022/12/10 09:45:12;;;;;;;89.32;30.25;;;-0.20;99.90;;;;;;5026686;28;20045;-76
2022/12/10 09:47:54;;;;;;;104.63;30.67;;;-0.20;99.90;;;;;;5002399;28;20042;-76
2022/12/10 09:50:28;;;;;;;105.90;29.90;;;-0.20;99.90;;;;;;5034824;28;20399;-76
2022/12/10 09:52:57;;;;;;;115.27;30.70;;;-0.20;99.90;;;;;;5027145;28;20033;-75
2022/12/10 09:55:35;;;;;;;123.43;33.60;;;-0.10;99.90;;;;;;5025078;28;20466;-76
2022/12/10 09:58:05;;;;;;;109.87;34.57;;;0.00;99.90;;;;;;5019211;28;20041;-76
2022/12/10 10:00:41;;;;;;;149.20;36.67;;;-0.10;99.90;;;;;;5027104;28;20044;-76
2022/12/10 10:03:14;;;;;;;109.33;33.40;;;-0.10;99.90;;;;;;5023412;28;20045;-76
2022/12/10 10:05:43;;;;;;;118.33;33.87;;;0.00;99.90;;;;;;5040773;28;20037;-76
2022/12/10 10:08:37;;;;;;;113.63;32.13;;;0.00;99.90;;;;;;5017587;28;20123;-76
2022/12/10 10:11:05;;;;;;;109.73;32.20;;;0.00;99.90;;;;;;5012786;28;20033;-77
2022/12/10 10:13:53;;;;;;;125.40;33.70;;;0.10;99.90;;;;;;5041741;28;20052;-78
2022/12/10 10:16:27;;;;;;;139.50;36.43;;;0.10;99.90;;;;;;5038805;28;20514;-76
2022/12/10 10:19:04;;;;;;;105.20;33.57;;;0.10;99.90;;;;;;5048469;28;20493;-77
2022/12/10 10:21:37;;;;;;;114.47;35.57;;;0.20;99.90;;;;;;5016109;28;20033;-76
2022/12/10 10:24:06;;;;;;;191.30;43.53;;;0.20;99.90;;;;;;5022958;28;20551;-77
2022/12/10 10:26:33;;;;;;;110.37;34.97;;;0.20;99.90;;;;;;5021733;28;20041;-77
2022/12/10 10:29:02;;;;;;;115.07;33.10;;;0.20;99.90;;;;;;5022315;28;20049;-77
2022/12/10 10:31:31;;;;;;;117.70;33.67;;;0.20;99.90;;;;;;5008598;28;20029;-77
2022/12/10 10:34:01;;;;;;;103.37;32.13;;;0.30;99.90;;;;;;5023929;28;20030;-78
2022/12/10 10:36:39;;;;;;;144.00;36.37;;;0.30;99.90;;;;;;5049155;28;20491;-77
2022/12/10 10:39:11;;;;;;;111.57;33.43;;;0.30;99.90;;;;;;5009742;28;20042;-78
2022/12/10 10:41:39;;;;;;;113.80;34.55;;;0.30;99.90;;;;;;5019697;28;20076;-79
2022/12/10 10:44:15;;;;;;;106.50;32.50;;;0.30;99.90;;;;;;4997797;28;20484;-78
2022/12/10 10:46:43;;;;;;;111.33;32.87;;;0.40;99.90;;;;;;5037919;28;20364;-77
2022/12/10 10:49:26;;;;;;;126.60;39.20;;;0.40;99.90;;;;;;5041516;28;20042;-78
2022/12/10 10:51:59;;;;;;;143.85;39.97;;;0.40;99.90;;;;;;5007508;28;20037;-79
2022/12/10 10:54:42;;;;;;;;;;;0.40;99.90;;;;;;5009023;28;20037;-79
2022/12/10 10:57:36;;;;;;;108.83;34.90;;;0.50;99.90;;;;;;5015947;28;19940;-80
2022/12/10 11:00:22;;;;;;;125.63;36.30;;;0.50;99.90;;;;;;5015763;28;20287;-79
2022/12/10 11:02:49;;;;;;;121.27;36.23;;;0.50;99.90;;;;;;4993103;28;20044;-80
2022/12/10 11:05:26;;;;;;;118.87;37.60;;;0.50;99.90;;;;;;5030825;28;20040;-78
2022/12/10 11:08:07;;;;;;;104.40;33.53;;;0.50;99.90;;;;;;4999349;28;20034;-79
2022/12/10 11:10:33;;;;;;;110.57;32.83;;;0.50;99.90;;;;;;5040236;28;20025;-78
2022/12/10 11:13:04;;;;;;;136.20;36.97;;;0.60;99.90;;;;;;5026679;28;20044;-79
2022/12/10 11:15:41;;;;;;;122.00;38.03;;;0.60;99.90;;;;;;5010313;28;20399;-79
2022/12/10 11:18:29;;;;;;;115.67;35.70;;;0.60;99.90;;;;;;5023164;28;20045;-79
2022/12/10 11:21:06;;;;;;;105.77;32.93;;;0.60;99.90;;;;;;5038978;28;20042;-79
2022/12/10 11:23:39;;;;;;;117.07;34.57;;;0.60;99.90;;;;;;5024631;28;20528;-79
2022/12/10 11:26:29;;;;;;;93.37;30.37;;;0.70;99.90;;;;;;5027383;28;20044;-78
2022/12/10 11:29:14;;;;;;;94.43;30.87;;;0.70;99.90;;;;;;5050252;28;20065;-80
2022/12/10 11:31:49;;;;;;;87.37;28.47;;;0.70;99.90;;;;;;5028043;28;20042;-79
2022/12/10 11:34:28;;;;;;;99.40;31.57;;;0.80;99.90;;;;;;5033088;28;20033;-79
2022/12/10 11:37:11;;;;;;;104.20;32.83;;;0.80;99.90;;;;;;5031060;28;20492;-79
2022/12/10 11:39:40;;;;;;;102.10;32.70;;;0.90;99.90;;;;;;5030718;28;20040;-79
2022/12/10 11:42:38;;;;;;;105.67;32.70;;;0.90;99.90;;;;;;5043430;28;20040;-79
2022/12/10 11:45:30;;;;;;;97.03;34.43;;;0.90;99.90;;;;;;5015058;28;20493;-80
2022/12/10 11:48:06;;;;;;;85.70;29.17;;;0.90;99.90;;;;;;5016177;28;20046;-82
2022/12/10 11:50:49;;;;;;;108.73;36.10;;;0.90;99.90;;;;;;5044752;28;20037;-84
2022/12/10 11:53:36;;;;;;;82.63;29.63;;;0.90;99.90;;;;;;5014842;28;20060;-84
2022/12/10 11:56:13;;;;;;;115.33;37.23;;;0.90;99.90;;;;;;5013600;28;20032;-79
2022/12/10 11:59:10;;;;;;;88.67;30.37;;;0.90;99.90;;;;;;5042683;28;20037;-82
2022/12/10 12:01:39;;;;;;;101.67;32.10;;;0.90;99.90;;;;;;5023690;28;20045;-81
2022/12/10 12:04:19;;;;;;;76.10;26.33;;;0.90;99.90;;;;;;5023591;28;20130;-80
2022/12/10 12:07:04;;;;;;;82.57;28.30;;;0.90;99.90;;;;;;5028458;28;20049;-80
2022/12/10 12:10:01;;;;;;;83.63;26.87;;;1.00;99.90;;;;;;5047470;28;20048;-83
2022/12/10 12:12:30;;;;;;;83.50;27.30;;;1.00;99.90;;;;;;5032235;28;20479;-83
2022/12/10 12:15:17;;;;;;;92.90;30.07;;;1.00;99.90;;;;;;5030522;28;20032;-82
2022/12/10 12:17:57;;;;;;;90.33;30.93;;;1.00;99.90;;;;;;5003896;28;20045;-82
2022/12/10 12:20:47;;;;;;;92.07;32.13;;;1.00;99.90;;;;;;5024584;28;20041;-82
2022/12/10 12:23:32;;;;;;;75.60;26.57;;;1.00;99.90;;;;;;5027144;28;20033;-83
2022/12/10 12:26:04;;;;;;;95.33;30.87;;;1.00;99.90;;;;;;5041127;28;20529;-81
2022/12/10 12:28:40;;;;;;;76.55;26.65;;;1.00;99.90;;;;;;5025294;28;20440;-85
2022/12/10 12:31:11;;;;;;;89.17;29.17;;;1.00;99.90;;;;;;5026744;28;20056;-82
2022/12/10 12:33:50;;;;;;;82.83;27.30;;;1.00;99.90;;;;;;5032703;28;20029;-82
2022/12/10 12:36:28;;;;;;;89.13;29.23;;;1.00;99.90;;;;;;5041521;28;20033;-78
2022/12/10 12:39:16;;;;;;;81.57;27.40;;;1.00;99.90;;;;;;5023774;28;20033;-83
2022/12/10 12:41:51;;;;;;;77.20;23.87;;;1.00;99.90;;;;;;5007192;28;20253;-82
2022/12/10 12:44:48;;;;;;;87.23;27.83;;;1.00;99.90;;;;;;5015290;28;20052;-81
2022/12/10 12:47:26;;;;;;;89.77;26.93;;;1.00;99.90;;;;;;5019661;28;20053;-82
2022/12/10 12:49:55;;;;;;;81.33;26.10;;;0.90;99.90;;;;;;4996023;28;20463;-82
2022/12/10 12:52:45;;;;;;;76.70;26.43;;;0.90;99.90;;;;;;5040131;28;20037;-79
2022/12/10 12:55:24;;;;;;;79.27;28.10;;;0.90;99.90;;;;;;5011779;28;20033;-83
2022/12/10 12:58:06;;;;;;;83.60;26.97;;;0.90;99.90;;;;;;5017501;28;20029;-83